sensor_id;sensor_type;location;lat;lon;timestamp;pressure;altitude;pressure_sealevel;temperature;humidity
61682;BME280;47577;43.610;25.010;2022-12-05T00:01:31;101791.38;;;4.61;95.15
61682;BME280;47577;43.610;25.010;2022-12-05T00:03:58;101776.31;;;4.49;95.34
61682;BME280;47577;43.610;25.010;2022-12-05T00:06:26;101788.72;;;4.60;94.30
61682;BME280;47577;43.610;25.010;2022-12-05T00:08:52;101793.16;;;4.62;94.69
61682;BME280;47577;43.610;25.010;2022-12-05T00:11:21;101793.97;;;4.58;94.53
61682;BME280;47577;43.610;25.010;2022-12-05T00:13:48;101795.56;;;4.47;95.37
61682;BME280;47577;43.610;25.010;2022-12-05T00:16:17;101784.81;;;4.30;96.58
61682;BME280;47577;43.610;25.010;2022-12-05T00:18:43;101803.53;;;4.51;95.30
61682;BME280;47577;43.610;25.010;2022-12-05T00:21:22;101796.38;;;4.39;95.60
61682;BME280;47577;43.610;25.010;2022-12-05T00:23:49;101797.44;;;4.54;95.37
61682;BME280;47577;43.610;25.010;2022-12-05T00:26:16;101800.94;;;4.53;95.73
61682;BME280;47577;43.610;25.010;2022-12-05T00:28:42;101795.69;;;4.56;94.37
61682;BME280;47577;43.610;25.010;2022-12-05T00:31:10;101790.38;;;4.53;94.79
61682;BME280;47577;43.610;25.010;2022-12-05T00:33:36;101784.25;;;4.52;94.25
61682;BME280;47577;43.610;25.010;2022-12-05T00:36:04;101801.94;;;4.64;94.89
61682;BME280;47577;43.610;25.010;2022-12-05T00:38:30;101790.59;;;4.67;94.41
61682;BME280;47577;43.610;25.010;2022-12-05T00:41:03;101794.00;;;4.61;94.25
61682;BME280;47577;43.610;25.010;2022-12-05T00:43:28;101805.47;;;4.65;93.37
61682;BME280;47577;43.610;25.010;2022-12-05T00:45:54;101801.06;;;4.62;93.37
61682;BME280;47577;43.610;25.010;2022-12-05T00:48:20;101802.78;;;4.60;94.45
61682;BME280;47577;43.610;25.010;2022-12-05T00:50:45;101804.53;;;4.60;94.38
61682;BME280;47577;43.610;25.010;2022-12-05T00:53:11;101782.38;;;4.45;93.88
61682;BME280;47577;43.610;25.010;2022-12-05T00:55:36;101792.13;;;4.51;94.44
61682;BME280;47577;43.610;25.010;2022-12-05T00:58:03;101717.81;;;4.08;93.98
61682;BME280;47577;43.610;25.010;2022-12-05T01:00:28;101766.50;;;4.40;94.11
61682;BME280;47577;43.610;25.010;2022-12-05T01:02:54;101775.28;;;4.39;93.75
61682;BME280;47577;43.610;25.010;2022-12-05T01:05:20;101765.59;;;4.37;94.26
61682;BME280;47577;43.610;25.010;2022-12-05T01:07:46;101761.09;;;4.28;95.07
61682;BME280;47577;43.610;25.010;2022-12-05T01:10:11;101773.47;;;4.35;94.43
61682;BME280;47577;43.610;25.010;2022-12-05T01:12:37;101777.03;;;4.40;94.72
61682;BME280;47577;43.610;25.010;2022-12-05T01:15:03;101776.06;;;4.32;94.15
61682;BME280;47577;43.610;25.010;2022-12-05T01:17:29;101773.47;;;4.35;95.04
61682;BME280;47577;43.610;25.010;2022-12-05T01:19:54;101788.41;;;4.36;95.51
61682;BME280;47577;43.610;25.010;2022-12-05T01:22:20;101778.66;;;4.31;94.63
61682;BME280;47577;43.610;25.010;2022-12-05T01:24:45;101782.31;;;4.37;95.39
61682;BME280;47577;43.610;25.010;2022-12-05T01:27:11;101778.63;;;4.26;94.78
61682;BME280;47577;43.610;25.010;2022-12-05T01:29:37;101763.44;;;4.07;95.65
61682;BME280;47577;43.610;25.010;2022-12-05T01:32:03;101772.44;;;4.24;95.13
61682;BME280;47577;43.610;25.010;2022-12-05T01:34:30;101764.44;;;4.16;95.28
61682;BME280;47577;43.610;25.010;2022-12-05T01:36:56;101769.03;;;4.30;96.01
61682;BME280;47577;43.610;25.010;2022-12-05T01:39:21;101765.50;;;4.31;94.58
61682;BME280;47577;43.610;25.010;2022-12-05T01:41:48;101758.41;;;4.24;95.45
61682;BME280;47577;43.610;25.010;2022-12-05T01:46:48;101764.72;;;4.36;93.84
61682;BME280;47577;43.610;25.010;2022-12-05T01:49:26;101769.09;;;4.34;94.37
61682;BME280;47577;43.610;25.010;2022-12-05T01:52:24;101757.63;;;4.32;nan
61682;BME280;47577;43.610;25.010;2022-12-05T01:54:51;101753.34;;;4.39;94.89
61682;BME280;47577;43.610;25.010;2022-12-05T01:57:22;101746.22;;;4.32;94.44
61682;BME280;47577;43.610;25.010;2022-12-05T01:59:56;101740.94;;;4.30;94.33
61682;BME280;47577;43.610;25.010;2022-12-05T02:02:23;101752.34;;;4.32;94.14
61682;BME280;47577;43.610;25.010;2022-12-05T02:05:06;101753.25;;;4.33;95.00
61682;BME280;47577;43.610;25.010;2022-12-05T02:07:34;101752.31;;;4.28;95.39
61682;BME280;47577;43.610;25.010;2022-12-05T02:10:01;101742.53;;;4.19;94.64
61682;BME280;47577;43.610;25.010;2022-12-05T02:12:27;101752.22;;;4.21;95.43
61682;BME280;47577;43.610;25.010;2022-12-05T02:28:42;101746.34;;;4.41;94.29
61682;BME280;47577;43.610;25.010;2022-12-05T02:31:14;101747.09;;;4.32;94.39
61682;BME280;47577;43.610;25.010;2022-12-05T02:33:50;101743.69;;;4.39;94.26
61682;BME280;47577;43.610;25.010;2022-12-05T02:36:26;101748.84;;;4.32;94.35
61682;BME280;47577;43.610;25.010;2022-12-05T02:42:05;101743.72;;;4.43;94.24
61682;BME280;47577;43.610;25.010;2022-12-05T02:44:49;101747.06;;;4.31;93.30
61682;BME280;47577;43.610;25.010;2022-12-05T02:47:20;101749.91;;;4.45;93.12
61682;BME280;47577;43.610;25.010;2022-12-05T02:49:49;101748.16;;;4.47;92.90
61682;BME280;47577;43.610;25.010;2022-12-05T02:52:17;101735.84;;;4.43;93.43
61682;BME280;47577;43.610;25.010;2022-12-05T02:54:45;101724.38;;;4.39;93.29
61682;BME280;47577;43.610;25.010;2022-12-05T02:57:13;101744.53;;;4.38;93.41
61682;BME280;47577;43.610;25.010;2022-12-05T02:59:39;101731.31;;;4.34;92.68
61682;BME280;47577;43.610;25.010;2022-12-05T03:02:07;101736.66;;;4.40;93.04
61682;BME280;47577;43.610;25.010;2022-12-05T03:04:34;101744.59;;;4.43;93.14
61682;BME280;47577;43.610;25.010;2022-12-05T03:07:07;101735.75;;;4.36;93.77
61682;BME280;47577;43.610;25.010;2022-12-05T03:09:44;101744.50;;;4.35;93.25
61682;BME280;47577;43.610;25.010;2022-12-05T03:12:39;101749.88;;;4.43;93.14
61682;BME280;47577;43.610;25.010;2022-12-05T03:15:17;101757.78;;;4.43;92.96
61682;BME280;47577;43.610;25.010;2022-12-05T03:18:03;101744.53;;;4.38;93.24
61682;BME280;47577;43.610;25.010;2022-12-05T03:23:27;101764.66;;;4.33;94.38
61682;BME280;47577;43.610;25.010;2022-12-05T03:26:08;101757.56;;;4.26;94.27
61682;BME280;47577;43.610;25.010;2022-12-05T03:29:06;101761.81;;;4.16;93.58
61682;BME280;47577;43.610;25.010;2022-12-05T03:32:09;101761.94;;;4.26;93.85
61682;BME280;47577;43.610;25.010;2022-12-05T03:35:17;101775.16;;;4.30;93.92
61682;BME280;47577;43.610;25.010;2022-12-05T03:37:45;101758.53;;;4.33;93.14
61682;BME280;47577;43.610;25.010;2022-12-05T03:40:14;101765.50;;;4.29;93.53
61682;BME280;47577;43.610;25.010;2022-12-05T03:42:54;101754.06;;;4.29;93.42
61682;BME280;47577;43.610;25.010;2022-12-05T03:45:31;101753.31;;;4.37;92.65
61682;BME280;47577;43.610;25.010;2022-12-05T03:48:29;101755.97;;;4.40;92.90
61682;BME280;47577;43.610;25.010;2022-12-05T03:50:51;101757.00;;;4.49;93.40
61682;BME280;47577;43.610;25.010;2022-12-05T03:53:24;101751.78;;;4.56;92.89
61682;BME280;47577;43.610;25.010;2022-12-05T03:56:02;101743.78;;;4.46;92.53
61682;BME280;47577;43.610;25.010;2022-12-05T03:58:40;101728.59;;;4.26;92.21
61682;BME280;47577;43.610;25.010;2022-12-05T04:01:10;101747.97;;;4.31;93.55
61682;BME280;47577;43.610;25.010;2022-12-05T04:03:48;101744.47;;;4.34;92.41
61682;BME280;47577;43.610;25.010;2022-12-05T04:08:54;101754.13;;;4.33;92.63
61682;BME280;47577;43.610;25.010;2022-12-05T04:11:24;101753.25;;;4.31;93.74
61682;BME280;47577;43.610;25.010;2022-12-05T04:14:14;101749.84;;;4.42;92.58
61682;BME280;47577;43.610;25.010;2022-12-05T04:16:50;101751.53;;;4.36;93.58
61682;BME280;47577;43.610;25.010;2022-12-05T04:21:55;101748.69;;;4.21;93.48
61682;BME280;47577;43.610;25.010;2022-12-05T04:24:25;101752.31;;;4.26;93.78
61682;BME280;47577;43.610;25.010;2022-12-05T04:30:06;101752.31;;;4.28;93.73
61682;BME280;47577;43.610;25.010;2022-12-05T04:35:33;101742.63;;;4.25;93.21
61682;BME280;47577;43.610;25.010;2022-12-05T04:38:27;101732.06;;;4.24;93.14
61682;BME280;47577;43.610;25.010;2022-12-05T04:40:59;101735.50;;;4.16;94.04
61682;BME280;47577;43.610;25.010;2022-12-05T04:43:28;101741.72;;;4.23;92.86
61682;BME280;47577;43.610;25.010;2022-12-05T04:45:57;101744.38;;;4.25;93.57
61682;BME280;47577;43.610;25.010;2022-12-05T04:48:26;101757.44;;;4.18;94.29
61682;BME280;47577;43.610;25.010;2022-12-05T04:50:54;101753.06;;;4.19;93.00
61682;BME280;47577;43.610;25.010;2022-12-05T04:53:23;101743.28;;;4.09;93.29
61682;BME280;47577;43.610;25.010;2022-12-05T04:55:53;101763.66;;;4.24;93.57
61682;BME280;47577;43.610;25.010;2022-12-05T04:58:25;101758.31;;;4.17;93.76
61682;BME280;47577;43.610;25.010;2022-12-05T05:01:18;101771.59;;;4.27;93.15
61682;BME280;47577;43.610;25.010;2022-12-05T05:06:15;101770.53;;;4.12;93.82
61682;BME280;47577;43.610;25.010;2022-12-05T05:08:53;101773.09;;;4.09;94.42
61682;BME280;47577;43.610;25.010;2022-12-05T05:11:21;101773.16;;;4.12;94.06
61682;BME280;47577;43.610;25.010;2022-12-05T05:13:48;101773.25;;;4.18;93.45
61682;BME280;47577;43.610;25.010;2022-12-05T05:16:16;101770.63;;;4.18;93.19
61682;BME280;47577;43.610;25.010;2022-12-05T05:18:44;101770.44;;;4.08;93.26
61682;BME280;47577;43.610;25.010;2022-12-05T05:21:15;101765.09;;;4.03;93.60
61682;BME280;47577;43.610;25.010;2022-12-05T05:23:40;101782.81;;;4.12;94.21
61682;BME280;47577;43.610;25.010;2022-12-05T05:26:06;101762.53;;;4.06;93.57
61682;BME280;47577;43.610;25.010;2022-12-05T05:28:32;101756.25;;;3.98;93.70
61682;BME280;47577;43.610;25.010;2022-12-05T05:31:03;101783.56;;;4.05;94.41
61682;BME280;47577;43.610;25.010;2022-12-05T05:33:29;101776.53;;;4.02;94.60
61682;BME280;47577;43.610;25.010;2022-12-05T05:35:55;101785.44;;;4.12;93.94
61682;BME280;47577;43.610;25.010;2022-12-05T05:38:21;101781.97;;;4.16;93.26
61682;BME280;47577;43.610;25.010;2022-12-05T05:40:46;101787.44;;;4.30;93.61
61682;BME280;47577;43.610;25.010;2022-12-05T05:43:12;101783.00;;;4.26;93.12
61682;BME280;47577;43.610;25.010;2022-12-05T05:45:38;101778.69;;;4.29;92.15
61682;BME280;47577;43.610;25.010;2022-12-05T05:48:04;101793.41;;;4.16;92.25
61682;BME280;47577;43.610;25.010;2022-12-05T05:50:30;101790.84;;;4.22;92.86
61682;BME280;47577;43.610;25.010;2022-12-05T05:52:55;101790.00;;;4.24;92.61
61682;BME280;47577;43.610;25.010;2022-12-05T05:55:21;101799.69;;;4.26;93.01
61682;BME280;47577;43.610;25.010;2022-12-05T05:57:47;101791.81;;;4.28;92.85
61682;BME280;47577;43.610;25.010;2022-12-05T06:00:13;101802.56;;;4.43;91.98
61682;BME280;47577;43.610;25.010;2022-12-05T06:02:39;101787.53;;;4.34;91.76
61682;BME280;47577;43.610;25.010;2022-12-05T06:05:05;101789.19;;;4.31;91.66
61682;BME280;47577;43.610;25.010;2022-12-05T06:07:31;101797.09;;;4.31;92.06
61682;BME280;47577;43.610;25.010;2022-12-05T06:09:57;101784.69;;;4.20;92.53
61682;BME280;47577;43.610;25.010;2022-12-05T06:12:24;101796.09;;;4.21;92.92
61682;BME280;47577;43.610;25.010;2022-12-05T06:14:50;101786.41;;;4.18;92.79
61682;BME280;47577;43.610;25.010;2022-12-05T06:17:16;101789.16;;;4.26;92.42
61682;BME280;47577;43.610;25.010;2022-12-05T06:19:42;101789.19;;;4.31;91.77
61682;BME280;47577;43.610;25.010;2022-12-05T06:22:08;101787.31;;;4.20;91.84
61682;BME280;47577;43.610;25.010;2022-12-05T06:24:34;101794.44;;;4.28;92.33
61682;BME280;47577;43.610;25.010;2022-12-05T06:27:00;101795.16;;;4.17;92.25
61682;BME280;47577;43.610;25.010;2022-12-05T06:29:25;101792.53;;;4.17;92.74
61682;BME280;47577;43.610;25.010;2022-12-05T06:31:51;101791.78;;;4.26;92.24
61682;BME280;47577;43.610;25.010;2022-12-05T06:34:17;101784.84;;;4.31;92.02
61682;BME280;47577;43.610;25.010;2022-12-05T06:36:43;101788.25;;;4.26;92.24
61682;BME280;47577;43.610;25.010;2022-12-05T06:39:09;101793.50;;;4.24;92.63
61682;BME280;47577;43.610;25.010;2022-12-05T06:41:35;101797.13;;;4.32;91.72
61682;BME280;47577;43.610;25.010;2022-12-05T06:44:00;101812.16;;;4.38;91.79
61682;BME280;47577;43.610;25.010;2022-12-05T06:46:27;101800.66;;;4.33;92.01
61682;BME280;47577;43.610;25.010;2022-12-05T06:48:53;101798.09;;;4.37;91.71
61682;BME280;47577;43.610;25.010;2022-12-05T06:51:19;101810.47;;;4.45;91.69
61682;BME280;47577;43.610;25.010;2022-12-05T06:53:45;101817.56;;;4.47;91.37
61682;BME280;47577;43.610;25.010;2022-12-05T06:56:14;101817.56;;;4.47;92.02
61682;BME280;47577;43.610;25.010;2022-12-05T06:58:41;101814.94;;;4.49;92.06
61682;BME280;47577;43.610;25.010;2022-12-05T07:01:16;101817.53;;;4.46;91.65
61682;BME280;47577;43.610;25.010;2022-12-05T07:04:01;101806.94;;;4.43;92.06
61682;BME280;47577;43.610;25.010;2022-12-05T07:06:27;101825.50;;;4.53;91.37
61682;BME280;47577;43.610;25.010;2022-12-05T07:08:53;101831.63;;;4.49;92.37
61682;BME280;47577;43.610;25.010;2022-12-05T07:11:19;101823.59;;;4.42;92.27
61682;BME280;47577;43.610;25.010;2022-12-05T07:13:45;101821.75;;;4.34;92.43
61682;BME280;47577;43.610;25.010;2022-12-05T07:16:11;101828.78;;;4.35;92.79
61682;BME280;47577;43.610;25.010;2022-12-05T07:18:37;101830.56;;;4.38;91.97
61682;BME280;47577;43.610;25.010;2022-12-05T07:21:05;101837.56;;;4.34;92.26
61682;BME280;47577;43.610;25.010;2022-12-05T07:23:33;101831.44;;;4.37;92.06
61682;BME280;47577;43.610;25.010;2022-12-05T07:26:03;101845.56;;;4.44;91.54
61682;BME280;47577;43.610;25.010;2022-12-05T07:28:29;101839.41;;;4.42;91.49
61682;BME280;47577;43.610;25.010;2022-12-05T07:31:06;101845.25;;;4.22;92.35
61682;BME280;47577;43.610;25.010;2022-12-05T07:33:32;101847.78;;;4.16;92.88
61682;BME280;47577;43.610;25.010;2022-12-05T07:35:59;101842.63;;;4.22;92.61
61682;BME280;47577;43.610;25.010;2022-12-05T07:38:25;101843.69;;;4.33;92.88
61682;BME280;47577;43.610;25.010;2022-12-05T07:40:51;101854.25;;;4.36;93.65
61682;BME280;47577;43.610;25.010;2022-12-05T07:43:17;101841.97;;;4.37;92.67
61682;BME280;47577;43.610;25.010;2022-12-05T07:45:43;101848.16;;;4.40;92.61
61682;BME280;47577;43.610;25.010;2022-12-05T07:48:08;101857.09;;;4.52;92.16
61682;BME280;47577;43.610;25.010;2022-12-05T07:50:35;101844.72;;;4.45;91.63
61682;BME280;47577;43.610;25.010;2022-12-05T07:53:02;101851.91;;;4.56;91.40
61682;BME280;47577;43.610;25.010;2022-12-05T07:55:27;101856.38;;;4.61;92.65
61682;BME280;47577;43.610;25.010;2022-12-05T07:57:53;101849.31;;;4.60;91.08
61682;BME280;47577;43.610;25.010;2022-12-05T08:00:19;101853.72;;;4.59;91.94
61682;BME280;47577;43.610;25.010;2022-12-05T08:02:45;101840.44;;;4.53;91.50
61682;BME280;47577;43.610;25.010;2022-12-05T08:05:11;101848.38;;;4.56;91.64
61682;BME280;47577;43.610;25.010;2022-12-05T08:07:36;101856.19;;;4.50;91.50
61682;BME280;47577;43.610;25.010;2022-12-05T08:10:02;101843.00;;;4.48;91.98
61682;BME280;47577;43.610;25.010;2022-12-05T08:12:28;101858.97;;;4.59;91.28
61682;BME280;47577;43.610;25.010;2022-12-05T08:14:54;101850.13;;;4.54;91.72
61682;BME280;47577;43.610;25.010;2022-12-05T08:17:19;101852.78;;;4.55;91.69
61682;BME280;47577;43.610;25.010;2022-12-05T08:19:45;101840.47;;;4.54;91.83
61682;BME280;47577;43.610;25.010;2022-12-05T08:22:11;101851.94;;;4.60;91.08
61682;BME280;47577;43.610;25.010;2022-12-05T08:24:37;101837.69;;;4.45;92.70
61682;BME280;47577;43.610;25.010;2022-12-05T08:27:04;101853.63;;;4.54;92.34
61682;BME280;47577;43.610;25.010;2022-12-05T08:29:33;101840.09;;;4.28;92.60
61682;BME280;47577;43.610;25.010;2022-12-05T08:31:58;101838.53;;;4.41;92.88
61682;BME280;47577;43.610;25.010;2022-12-05T08:34:24;101851.84;;;4.53;92.51
61682;BME280;47577;43.610;25.010;2022-12-05T08:36:50;101846.59;;;4.53;92.15
61682;BME280;47577;43.610;25.010;2022-12-05T08:39:18;101843.94;;;4.52;93.27
61682;BME280;47577;43.610;25.010;2022-12-05T08:41:44;101844.91;;;4.57;92.41
61682;BME280;47577;43.610;25.010;2022-12-05T08:44:11;101843.06;;;4.53;92.16
61682;BME280;47577;43.610;25.010;2022-12-05T08:46:41;101830.75;;;4.49;93.10
61682;BME280;47577;43.610;25.010;2022-12-05T08:49:08;101826.38;;;4.51;93.25
61682;BME280;47577;43.610;25.010;2022-12-05T08:51:34;101840.50;;;4.56;93.00
61682;BME280;47577;43.610;25.010;2022-12-05T08:54:02;101837.06;;;4.63;92.40
61682;BME280;47577;43.610;25.010;2022-12-05T08:56:27;101837.81;;;4.53;92.78
61682;BME280;47577;43.610;25.010;2022-12-05T08:58:54;101837.00;;;4.57;93.15
61682;BME280;47577;43.610;25.010;2022-12-05T09:01:21;101837.06;;;4.62;92.70
61682;BME280;47577;43.610;25.010;2022-12-05T09:03:47;101833.63;;;4.67;92.71
61682;BME280;47577;43.610;25.010;2022-12-05T09:06:15;101820.50;;;4.72;92.66
61682;BME280;47577;43.610;25.010;2022-12-05T09:08:42;101818.78;;;4.75;91.52
61682;BME280;47577;43.610;25.010;2022-12-05T09:11:13;101816.16;;;4.75;92.02
61682;BME280;47577;43.610;25.010;2022-12-05T09:13:39;101804.63;;;4.67;92.75
61682;BME280;47577;43.610;25.010;2022-12-05T09:18:32;101811.03;;;4.86;92.06
61682;BME280;47577;43.610;25.010;2022-12-05T09:21:23;101809.22;;;4.84;91.74
61682;BME280;47577;43.610;25.010;2022-12-05T09:23:50;101798.63;;;4.79;91.50
61682;BME280;47577;43.610;25.010;2022-12-05T09:26:18;101807.50;;;4.87;91.30
61682;BME280;47577;43.610;25.010;2022-12-05T09:28:45;101798.81;;;4.94;91.91
61682;BME280;47577;43.610;25.010;2022-12-05T09:31:17;101794.25;;;4.80;91.87
61682;BME280;47577;43.610;25.010;2022-12-05T09:33:44;101781.81;;;4.69;92.70
61682;BME280;47577;43.610;25.010;2022-12-05T09:36:16;101803.09;;;4.85;92.42
61682;BME280;47577;43.610;25.010;2022-12-05T09:38:42;101796.97;;;4.89;92.44
61682;BME280;47577;43.610;25.010;2022-12-05T09:44:22;101786.34;;;4.78;92.82
61682;BME280;47577;43.610;25.010;2022-12-05T09:46:57;101781.09;;;4.84;91.98
61682;BME280;47577;43.610;25.010;2022-12-05T09:49:25;101767.84;;;4.75;92.38
61682;BME280;47577;43.610;25.010;2022-12-05T09:51:53;101764.28;;;4.70;93.14
61682;BME280;47577;43.610;25.010;2022-12-05T09:54:20;101767.94;;;4.83;92.56
61682;BME280;47577;43.610;25.010;2022-12-05T09:56:48;101756.44;;;4.78;93.19
61682;BME280;47577;43.610;25.010;2022-12-05T09:59:16;101753.91;;;4.85;92.19
61682;BME280;47577;43.610;25.010;2022-12-05T10:07:16;101757.53;;;4.95;91.65
61682;BME280;47577;43.610;25.010;2022-12-05T10:18:26;101746.25;;;5.10;91.27
61682;BME280;47577;43.610;25.010;2022-12-05T10:21:03;101748.03;;;5.11;90.86
61682;BME280;47577;43.610;25.010;2022-12-05T10:23:55;101748.03;;;5.12;91.49
61682;BME280;47577;43.610;25.010;2022-12-05T10:26:25;101740.09;;;5.08;91.36
61682;BME280;47577;43.610;25.010;2022-12-05T10:29:43;101743.59;;;5.10;91.00
61682;BME280;47577;43.610;25.010;2022-12-05T10:31:44;101749.81;;;5.17;91.00
61682;BME280;47577;43.610;25.010;2022-12-05T10:34:18;101748.16;;;5.23;90.70
61682;BME280;47577;43.610;25.010;2022-12-05T10:36:57;101747.31;;;5.29;90.34
61682;BME280;47577;43.610;25.010;2022-12-05T10:39:25;101745.56;;;5.31;90.52
61682;BME280;47577;43.610;25.010;2022-12-05T10:41:51;101738.47;;;5.22;90.67
61682;BME280;47577;43.610;25.010;2022-12-05T10:44:17;101733.16;;;5.19;89.98
61682;BME280;47577;43.610;25.010;2022-12-05T10:46:43;101739.44;;;5.32;91.08
61682;BME280;47577;43.610;25.010;2022-12-05T10:49:11;101728.84;;;5.27;90.56
61682;BME280;47577;43.610;25.010;2022-12-05T10:51:37;101735.97;;;5.39;89.64
61682;BME280;47577;43.610;25.010;2022-12-05T10:54:31;101732.34;;;5.25;89.88
61682;BME280;47577;43.610;25.010;2022-12-05T10:57:22;101734.13;;;5.27;90.68
61682;BME280;47577;43.610;25.010;2022-12-05T10:59:48;101726.25;;;5.32;90.00
61682;BME280;47577;43.610;25.010;2022-12-05T11:02:40;101725.41;;;5.39;90.18
61682;BME280;47577;43.610;25.010;2022-12-05T11:05:07;101721.88;;;5.36;89.84
61682;BME280;47577;43.610;25.010;2022-12-05T11:10:35;101727.19;;;5.39;90.45
61682;BME280;47577;43.610;25.010;2022-12-05T11:13:15;101722.78;;;5.39;89.93
61682;BME280;47577;43.610;25.010;2022-12-05T11:15:45;101715.81;;;5.44;89.99
61682;BME280;47577;43.610;25.010;2022-12-05T11:20:49;101712.28;;;5.44;89.93
61682;BME280;47577;43.610;25.010;2022-12-05T11:23:25;101712.31;;;5.50;89.46
61682;BME280;47577;43.610;25.010;2022-12-05T11:25:52;101703.56;;;5.53;89.71
61682;BME280;47577;43.610;25.010;2022-12-05T11:33:37;101705.50;;;5.77;88.91
61682;BME280;47577;43.610;25.010;2022-12-05T11:36:13;101701.94;;;5.75;88.32
61682;BME280;47577;43.610;25.010;2022-12-05T11:38:42;101704.56;;;5.70;88.37
61682;BME280;47577;43.610;25.010;2022-12-05T11:41:14;101706.38;;;5.79;88.14
61682;BME280;47577;43.610;25.010;2022-12-05T11:44:39;101691.31;;;5.61;87.82
61682;BME280;47577;43.610;25.010;2022-12-05T11:47:30;101694.81;;;5.58;89.33
61682;BME280;47577;43.610;25.010;2022-12-05T11:50:15;101691.28;;;5.56;89.27
61682;BME280;47577;43.610;25.010;2022-12-05T11:53:15;101701.91;;;5.70;88.70
61682;BME280;47577;43.610;25.010;2022-12-05T11:58:55;101696.69;;;5.76;87.71
61682;BME280;47577;43.610;25.010;2022-12-05T12:09:53;101679.06;;;5.72;88.23
61682;BME280;47577;43.610;25.010;2022-12-05T12:15:15;101672.94;;;5.78;87.92
61682;BME280;47577;43.610;25.010;2022-12-05T12:18:07;101673.03;;;5.89;87.69
61682;BME280;47577;43.610;25.010;2022-12-05T12:20:40;101676.53;;;5.91;87.82
61682;BME280;47577;43.610;25.010;2022-12-05T12:26:19;101662.50;;;5.93;87.24
61682;BME280;47577;43.610;25.010;2022-12-05T12:32:28;101666.88;;;5.93;87.24
61682;BME280;47577;43.610;25.010;2022-12-05T12:35:03;101657.19;;;5.89;87.30
61682;BME280;47577;43.610;25.010;2022-12-05T12:37:55;101671.34;;;5.98;86.29
61682;BME280;47577;43.610;25.010;2022-12-05T12:48:40;101644.94;;;5.97;86.45
61682;BME280;47577;43.610;25.010;2022-12-05T12:51:12;101626.38;;;5.91;86.15
61682;BME280;47577;43.610;25.010;2022-12-05T12:54:02;101637.91;;;6.00;86.60
61682;BME280;47577;43.610;25.010;2022-12-05T13:00:01;101652.84;;;5.98;86.83
61682;BME280;47577;43.610;25.010;2022-12-05T13:02:35;101649.34;;;5.98;86.88
61682;BME280;47577;43.610;25.010;2022-12-05T13:05:29;101637.81;;;5.93;86.93
61682;BME280;47577;43.610;25.010;2022-12-05T13:10:33;101625.50;;;5.89;86.54
61682;BME280;47577;43.610;25.010;2022-12-05T13:13:02;101617.56;;;5.84;86.24
61682;BME280;47577;43.610;25.010;2022-12-05T13:15:37;101624.63;;;5.94;86.44
61682;BME280;47577;43.610;25.010;2022-12-05T13:18:06;101609.66;;;5.89;86.79
61682;BME280;47577;43.610;25.010;2022-12-05T13:20:38;101606.16;;;5.90;86.51
61682;BME280;47577;43.610;25.010;2022-12-05T13:23:05;101610.53;;;5.91;86.33
61682;BME280;47577;43.610;25.010;2022-12-05T13:25:34;101619.34;;;5.96;87.05
61682;BME280;47577;43.610;25.010;2022-12-05T13:28:05;101610.53;;;5.89;86.68
61682;BME280;47577;43.610;25.010;2022-12-05T13:30:33;101599.09;;;5.90;86.66
61682;BME280;47577;43.610;25.010;2022-12-05T13:33:21;101594.69;;;5.91;86.49
61682;BME280;47577;43.610;25.010;2022-12-05T13:35:54;101609.75;;;6.01;86.37
61682;BME280;47577;43.610;25.010;2022-12-05T13:38:40;101616.78;;;5.99;86.52
61682;BME280;47577;43.610;25.010;2022-12-05T13:41:46;101614.06;;;5.93;86.43
61682;BME280;47577;43.610;25.010;2022-12-05T13:44:37;101608.78;;;5.88;87.35
61682;BME280;47577;43.610;25.010;2022-12-05T13:47:04;101605.25;;;5.88;86.62
61682;BME280;47577;43.610;25.010;2022-12-05T13:49:44;101617.66;;;5.98;87.03
61682;BME280;47577;43.610;25.010;2022-12-05T13:52:27;101613.28;;;6.01;86.67
61682;BME280;47577;43.610;25.010;2022-12-05T13:55:23;101611.44;;;5.94;87.08
61682;BME280;47577;43.610;25.010;2022-12-05T13:57:49;101610.66;;;6.03;86.42
61682;BME280;47577;43.610;25.010;2022-12-05T14:05:36;101609.78;;;6.10;86.03
61682;BME280;47577;43.610;25.010;2022-12-05T14:15:53;101593.94;;;6.09;86.35
61682;BME280;47577;43.610;25.010;2022-12-05T14:18:30;101601.00;;;6.14;86.08
61682;BME280;47577;43.610;25.010;2022-12-05T14:21:12;101600.97;;;6.08;86.15
61682;BME280;47577;43.610;25.010;2022-12-05T14:29:38;101609.75;;;6.04;87.00
61682;BME280;47577;43.610;25.010;2022-12-05T14:37:32;101604.47;;;5.96;86.65
61682;BME280;47577;43.610;25.010;2022-12-05T14:40:00;101610.63;;;6.01;86.63
61682;BME280;47577;43.610;25.010;2022-12-05T14:43:03;101620.31;;;6.07;86.53
61682;BME280;47577;43.610;25.010;2022-12-05T14:47:56;101620.31;;;6.06;86.22
61682;BME280;47577;43.610;25.010;2022-12-05T14:58:35;101610.69;;;6.18;85.87
61682;BME280;47577;43.610;25.010;2022-12-05T15:01:13;101617.75;;;6.19;85.54
61682;BME280;47577;43.610;25.010;2022-12-05T15:06:52;101622.94;;;6.04;86.50
61682;BME280;47577;43.610;25.010;2022-12-05T15:09:42;101625.59;;;6.04;86.49
61682;BME280;47577;43.610;25.010;2022-12-05T15:12:21;101615.03;;;6.04;86.63
61682;BME280;47577;43.610;25.010;2022-12-05T15:14:56;101605.34;;;6.01;86.84
61682;BME280;47577;43.610;25.010;2022-12-05T15:17:28;101614.16;;;6.05;86.66
61682;BME280;47577;43.610;25.010;2022-12-05T15:19:58;101596.56;;;6.01;86.76
61682;BME280;47577;43.610;25.010;2022-12-05T15:22:28;101610.66;;;6.06;86.59
61682;BME280;47577;43.610;25.010;2022-12-05T15:24:56;101603.59;;;6.02;86.81
61682;BME280;47577;43.610;25.010;2022-12-05T15:27:22;101620.31;;;6.04;87.08
61682;BME280;47577;43.610;25.010;2022-12-05T15:29:52;101600.06;;;6.00;86.71
61682;BME280;47577;43.610;25.010;2022-12-05T15:32:23;101594.78;;;6.00;86.56